Chicago, Illinois
Traffic Map
Current Weather Conditions
Chicago, Illinois
Broken Clouds
Broken Clouds
30°
Feels Like: 32°
Wind Chill: 30° Ceiling: 25000
Heat Index: 32° Visibility: 10mi
Dew Point: 20° Wind: 17mph
Humidity: 55% Direction: 180° (S)
Pressure: 29.92in Gusts: 26mph
Raw Report DataKMDW 061753Z 18015G23KT 10SM FEW030 BKN250 30/20 A2992 RMK AO2 SLP121 T03000200 10300 20222 58018
Traffic Incident Summary
Active as of:
Severity:
Category:
InformationThere was an issue retrieving the traffic information for this location. Please try a different location or try again shortly.
Advertisements
Track Severe Weather on mobile